Time;durP1;ratioP1;P1;durP2;ratioP2;P2;SDS_P1;SDS_P2;PMS_P1;PMS_P2;Temp;Humidity;BMP_temperature;BMP_pressure;BME280_temperature;BME280_humidity;BME280_pressure;Samples;Min_cycle;Max_cycle;Signal;HPM_P1;HPM_P2
2020/12/17 05:48:43;;;;;;;19.08;11.10;;;1.50;99.90;;;;;;4752569;30;20051;-78
2020/12/17 05:51:19;;;;;;;15.43;10.10;;;1.50;99.90;;;;;;4733408;30;20132;-78
2020/12/17 05:53:50;;;;;;;17.70;9.85;;;1.50;99.90;;;;;;4733504;30;20084;-78
2020/12/17 05:56:26;;;;;;;14.52;10.30;;;1.50;99.90;;;;;;4733688;30;20513;-78
2020/12/17 05:59:08;;;;;;;14.18;9.98;;;1.50;99.90;;;;;;4719354;30;20075;-78
2020/12/17 06:01:36;;;;;;;17.33;11.32;;;1.50;99.90;;;;;;4721968;30;20048;-78
2020/12/17 06:04:15;;;;;;;17.33;10.88;;;1.50;99.90;;;;;;4736291;30;20060;-79
2020/12/17 06:06:49;;;;;;;16.95;11.25;;;1.60;99.90;;;;;;4750340;30;20047;-78
2020/12/17 06:09:23;;;;;;;19.00;11.05;;;1.60;99.90;;;;;;4736734;30;20051;-78
2020/12/17 06:11:56;;;;;;;16.08;9.98;;;1.60;99.90;;;;;;4752115;30;20051;-79
2020/12/17 06:14:30;;;;;;;18.08;10.27;;;1.60;99.90;;;;;;4751796;30;20508;-78
2020/12/17 06:17:02;;;;;;;20.27;10.93;;;1.60;99.90;;;;;;4748614;30;20060;-78
2020/12/17 06:19:35;;;;;;;18.07;10.43;;;1.60;99.90;;;;;;4750729;30;20051;-78
2020/12/17 06:22:10;;;;;;;17.05;11.35;;;1.60;99.90;;;;;;4737621;30;20086;-79
2020/12/17 06:24:43;;;;;;;16.65;10.85;;;1.60;99.90;;;;;;4737727;30;20050;-78
2020/12/17 06:27:20;;;;;;;17.55;10.00;;;1.60;99.90;;;;;;4752043;30;20047;-79
2020/12/17 06:30:08;;;;;;;16.55;10.32;;;1.70;99.90;;;;;;4724810;30;20761;-79
2020/12/17 06:32:37;;;;;;;17.58;10.60;;;1.70;99.90;;;;;;4734488;30;20055;-78
2020/12/17 06:35:08;;;;;;;17.30;10.60;;;1.70;99.90;;;;;;4728301;30;20063;-78
2020/12/17 06:37:36;;;;;;;19.77;11.55;;;1.70;99.90;;;;;;4733714;30;20055;-78
2020/12/17 06:40:09;;;;;;;17.30;10.68;;;1.70;99.90;;;;;;4733264;30;20143;-78
2020/12/17 06:42:41;;;;;;;18.02;10.98;;;1.80;99.90;;;;;;4733860;30;20044;-78
2020/12/17 06:45:36;;;;;;;17.83;10.88;;;1.80;99.90;;;;;;4731023;30;20579;-78
2020/12/17 06:48:37;;;;;;;14.82;10.18;;;1.80;99.90;;;;;;4732346;30;20055;-78
2020/12/17 06:51:29;;;;;;;17.55;9.55;;;1.90;99.90;;;;;;4733674;30;20048;-78
2020/12/17 06:53:57;;;;;;;14.73;10.18;;;1.90;99.90;;;;;;4733767;30;20135;-78
2020/12/17 06:56:24;;;;;;;14.38;9.63;;;2.00;99.90;;;;;;4700474;30;20051;-78
2020/12/17 06:59:15;;;;;;;16.67;9.90;;;2.00;99.90;;;;;;4714989;30;20656;-78
2020/12/17 07:01:42;;;;;;;15.85;9.50;;;2.00;99.90;;;;;;4716142;30;20052;-78
2020/12/17 07:04:10;;;;;;;15.82;10.40;;;2.00;99.90;;;;;;4721133;30;20097;-79
2020/12/17 07:11:01;;;;;;;14.65;8.43;;;2.00;99.90;;;;;;5589633;24;20113;-79
2020/12/17 07:13:38;;;;;;;12.40;8.48;;;2.00;99.90;;;;;;4732224;30;20082;-80
2020/12/17 07:16:20;;;;;;;15.07;9.18;;;2.00;99.90;;;;;;4729913;30;20845;-79
2020/12/17 07:19:12;;;;;;;15.00;10.00;;;2.00;99.90;;;;;;4732896;30;20106;-78
2020/12/17 07:21:41;;;;;;;14.90;9.90;;;2.00;99.90;;;;;;4748032;30;20110;-79
2020/12/17 07:24:30;;;;;;;12.18;8.18;;;2.00;99.90;;;;;;4736708;30;20048;-79
2020/12/17 07:27:06;;;;;;;15.38;8.90;;;2.10;99.90;;;;;;4748802;30;20126;-78
2020/12/17 07:29:40;;;;;;;14.60;9.23;;;2.10;99.90;;;;;;4748382;30;20508;-80
2020/12/17 07:32:34;;;;;;;15.30;9.32;;;2.10;99.90;;;;;;4721877;30;20066;-79
2020/12/17 07:35:08;;;;;;;12.35;8.45;;;2.10;99.90;;;;;;4719082;30;20556;-79
2020/12/17 07:37:39;;;;;;;15.48;10.23;;;2.10;99.90;;;;;;4749504;30;20056;-80
2020/12/17 07:40:15;;;;;;;13.90;9.52;;;2.20;99.90;;;;;;4734826;30;20048;-79
2020/12/17 07:42:53;;;;;;;16.27;10.10;;;2.20;99.90;;;;;;4736532;30;20139;-79
2020/12/17 07:45:46;;;;;;;15.70;9.60;;;2.20;99.90;;;;;;4747733;30;20070;-79
2020/12/17 07:48:41;;;;;;;13.50;8.73;;;2.20;99.90;;;;;;4735878;30;20405;-79
2020/12/17 07:51:14;;;;;;;14.90;9.52;;;2.30;99.90;;;;;;4733545;30;20152;-79
2020/12/17 07:53:48;;;;;;;12.20;8.25;;;2.30;99.90;;;;;;4717487;30;20051;-80
2020/12/17 07:56:16;;;;;;;15.20;9.65;;;2.30;99.90;;;;;;4731672;30;20582;-79
2020/12/17 07:58:44;;;;;;;14.38;8.93;;;2.40;99.90;;;;;;4749123;30;20075;-79
2020/12/17 08:01:16;;;;;;;12.88;8.98;;;2.40;99.90;;;;;;4736898;30;20295;-79
2020/12/17 08:03:47;;;;;;;17.08;11.07;;;2.40;99.90;;;;;;4750794;30;20133;-79
2020/12/17 08:06:21;;;;;;;13.52;8.98;;;2.40;99.90;;;;;;4736510;30;20086;-79
2020/12/17 08:09:00;;;;;;;15.27;9.27;;;2.40;99.90;;;;;;4735502;30;20520;-79
2020/12/17 08:11:31;;;;;;;13.52;8.60;;;2.40;99.90;;;;;;4736995;30;20047;-79
2020/12/17 08:14:08;;;;;;;13.43;9.35;;;2.50;99.90;;;;;;4736025;30;20473;-79
2020/12/17 08:16:36;;;;;;;12.90;8.90;;;2.50;99.90;;;;;;4736217;30;20495;-79
2020/12/17 08:19:03;;;;;;;12.10;8.43;;;2.50;99.90;;;;;;4733334;30;20059;-79
2020/12/17 08:21:30;;;;;;;12.30;8.88;;;2.50;99.90;;;;;;4733828;30;20052;-79
2020/12/17 08:23:57;;;;;;;11.15;8.02;;;2.50;99.90;;;;;;4735592;30;20105;-80
2020/12/17 08:26:27;;;;;;;9.45;7.50;;;2.50;99.90;;;;;;4740899;30;20049;-79
2020/12/17 08:28:55;;;;;;;11.73;8.00;;;2.50;99.90;;;;;;4722845;30;20051;-79
2020/12/17 08:31:24;;;;;;;11.55;8.25;;;2.50;99.90;;;;;;4749857;30;20357;-78
2020/12/17 08:34:00;;;;;;;14.00;8.75;;;2.50;99.90;;;;;;4748933;30;20062;-79
2020/12/17 08:36:34;;;;;;;12.30;8.57;;;2.50;99.90;;;;;;4750898;30;20055;-79
2020/12/17 08:39:18;;;;;;;12.07;8.90;;;2.50;99.90;;;;;;4735453;30;20555;-79
2020/12/17 08:41:53;;;;;;;12.13;8.10;;;2.50;99.90;;;;;;4750178;30;20058;-79
2020/12/17 08:44:32;;;;;;;10.52;8.15;;;2.50;99.90;;;;;;4729563;30;20056;-79
2020/12/17 08:47:00;;;;;;;;;;;2.50;99.90;;;;;;4732089;30;20048;-79
2020/12/17 08:49:28;;;;;;;12.45;7.72;;;2.50;99.90;;;;;;4732191;30;19930;-79
2020/12/17 08:51:57;;;;;;;11.00;7.72;;;2.60;99.90;;;;;;4732687;30;20160;-79
2020/12/17 08:54:30;;;;;;;12.02;8.65;;;2.60;99.90;;;;;;4739522;30;20087;-79
2020/12/17 08:57:16;;;;;;;15.00;9.47;;;2.60;99.90;;;;;;4750473;30;20119;-79
2020/12/17 08:59:52;;;;;;;11.57;8.02;;;2.50;99.90;;;;;;4724888;30;20143;-79
2020/12/17 09:02:28;;;;;;;10.93;7.63;;;2.60;99.90;;;;;;4748645;30;20054;-79
2020/12/17 09:05:00;;;;;;;11.15;7.97;;;2.60;99.90;;;;;;4748946;30;20130;-79
2020/12/17 09:07:32;;;;;;;11.23;8.52;;;2.60;99.90;;;;;;4736930;30;20134;-78
2020/12/17 09:10:24;;;;;;;11.52;8.13;;;2.70;99.90;;;;;;4749530;30;20082;-79
2020/12/17 09:12:56;;;;;;;14.23;8.57;;;2.70;99.90;;;;;;4746525;30;20059;-79
2020/12/17 09:15:22;;;;;;;13.93;8.75;;;2.70;99.90;;;;;;4736778;30;20504;-79
2020/12/17 09:18:08;;;;;;;13.38;8.88;;;2.80;99.90;;;;;;4749236;30;20146;-79
2020/12/17 09:20:36;;;;;;;14.80;9.13;;;2.90;99.90;;;;;;4751387;30;20769;-78
2020/12/17 09:23:08;;;;;;;12.60;8.40;;;2.90;99.90;;;;;;4737566;30;20048;-79
2020/12/17 09:25:35;;;;;;;12.95;8.93;;;3.00;99.90;;;;;;4752473;30;20073;-79
2020/12/17 09:28:19;;;;;;;15.35;9.82;;;3.00;99.90;;;;;;4751815;30;20122;-79
2020/12/17 09:30:51;;;;;;;16.73;10.75;;;3.10;99.90;;;;;;4721059;30;20056;-79
2020/12/17 09:33:18;;;;;;;18.30;10.98;;;3.20;99.90;;;;;;4720525;30;20059;-80
2020/12/17 09:35:46;;;;;;;14.30;10.07;;;3.30;99.90;;;;;;4738286;30;20082;-79
2020/12/17 09:38:19;;;;;;;17.80;10.85;;;3.40;99.90;;;;;;4751995;30;20103;-79
2020/12/17 09:40:54;;;;;;;16.83;11.25;;;3.50;99.90;;;;;;4738524;30;20795;-79
2020/12/17 09:43:20;;;;;;;15.95;10.52;;;3.60;99.90;;;;;;4734415;30;20135;-79
2020/12/17 09:45:50;;;;;;;16.33;11.10;;;3.60;99.90;;;;;;4747694;30;20056;-79
2020/12/17 09:48:30;;;;;;;15.82;10.55;;;3.70;99.90;;;;;;4734145;30;20076;-79
2020/12/17 09:51:01;;;;;;;16.38;9.80;;;3.80;99.90;;;;;;4734408;30;20053;-79
2020/12/17 09:53:34;;;;;;;15.68;10.35;;;3.90;99.90;;;;;;4749362;30;20044;-79
2020/12/17 09:56:00;;;;;;;13.10;9.38;;;3.90;99.90;;;;;;4734732;30;20048;-79
2020/12/17 09:58:27;;;;;;;15.88;10.07;;;4.00;99.90;;;;;;4733801;30;20526;-79
2020/12/17 10:00:54;;;;;;;13.80;9.80;;;4.00;99.90;;;;;;4734837;30;20054;-79
2020/12/17 10:03:26;;;;;;;15.55;9.95;;;4.10;99.90;;;;;;4749960;30;20044;-79
2020/12/17 10:05:53;;;;;;;14.95;10.00;;;4.10;99.90;;;;;;4751102;30;20144;-79
2020/12/17 10:08:20;;;;;;;14.98;9.93;;;4.20;99.90;;;;;;4743126;30;20420;-79
2020/12/17 10:10:47;;;;;;;15.55;10.23;;;4.30;99.90;;;;;;4720224;30;20052;-79
2020/12/17 10:14:25;;;;;;;13.45;10.02;;;4.40;99.90;;;;;;4754307;30;20055;-82
2020/12/17 10:22:00;;;;;;;15.90;9.90;;;4.50;99.90;;;;;;4773677;30;20225;-80
2020/12/17 10:24:27;;;;;;;14.25;9.95;;;4.60;99.90;;;;;;4744959;30;20055;-79
2020/12/17 10:26:56;;;;;;;13.38;9.23;;;4.60;99.90;;;;;;4756133;30;20071;-80
2020/12/17 10:29:23;;;;;;;13.25;9.63;;;4.70;99.90;;;;;;4748828;30;20058;-80
2020/12/17 10:31:51;;;;;;;14.82;8.90;;;4.80;99.90;;;;;;4743310;30;20427;-80
2020/12/17 10:34:18;;;;;;;12.32;9.10;;;4.80;99.90;;;;;;4748755;30;20059;-82
2020/12/17 10:36:45;;;;;;;13.50;9.52;;;4.90;99.90;;;;;;4757482;30;20055;-81
2020/12/17 10:39:13;;;;;;;12.63;8.48;;;5.00;99.90;;;;;;4742449;30;20043;-82
2020/12/17 10:41:41;;;;;;;11.23;8.55;;;5.00;99.90;;;;;;4758529;30;20075;-81
2020/12/17 10:58:50;;;;;;;12.38;8.95;;;5.60;99.90;;;;;;5236748;24;20075;-80
2020/12/17 11:01:22;;;;;;;11.45;7.97;;;5.70;99.90;;;;;;4759465;30;20075;-82
2020/12/17 11:03:52;;;;;;;11.68;7.90;;;5.70;99.90;;;;;;4754710;30;20040;-81
2020/12/17 11:06:21;;;;;;;11.00;7.70;;;5.80;99.90;;;;;;4740080;30;20056;-81
2020/12/17 11:08:48;;;;;;;10.85;7.90;;;5.90;99.90;;;;;;4741210;30;20142;-82
2020/12/17 11:11:21;;;;;;;10.82;7.95;;;6.00;99.90;;;;;;4726515;30;20520;-82
2020/12/17 11:13:48;;;;;;;10.95;7.97;;;6.10;99.90;;;;;;4726097;30;20056;-82
2020/12/17 11:16:17;;;;;;;9.40;7.32;;;6.20;99.90;;;;;;4726908;30;20063;-81
2020/12/17 11:18:44;;;;;;;9.98;7.30;;;6.30;99.90;;;;;;4727018;30;20052;-81
2020/12/17 11:21:11;;;;;;;9.60;7.10;;;6.30;99.90;;;;;;4742251;30;20064;-82
2020/12/17 11:23:39;;;;;;;9.23;7.63;;;6.30;99.90;;;;;;4727666;30;20420;-82
2020/12/17 11:30:06;;;;;;;10.13;7.18;;;6.50;99.90;;;;;;4762635;30;20133;-80
2020/12/17 11:32:37;;;;;;;9.27;6.88;;;6.60;99.90;;;;;;4739407;30;20060;-80
2020/12/17 12:22:44;;;;;;;9.57;6.57;;;8.00;99.90;;;;;;5761670;24;20138;31
2020/12/17 13:09:24;;;;;;;7.00;4.22;;;8.90;99.90;;;;;;5075092;24;20184;-81
2020/12/17 14:02:51;;;;;;;5.07;3.92;;;9.10;99.90;;;;;;5357442;24;20047;-80
2020/12/17 14:52:11;;;;;;;5.45;4.40;;;7.80;99.90;;;;;;5621033;24;20083;-79
2020/12/17 15:25:14;;;;;;;6.05;4.70;;;7.80;99.90;;;;;;5006595;24;20063;-80
2020/12/17 15:27:40;;;;;;;6.82;4.60;;;7.70;99.90;;;;;;4741963;30;20056;-78
2020/12/17 15:30:14;;;;;;;6.57;4.80;;;7.70;99.90;;;;;;4760565;30;20476;-82
2020/12/17 15:32:43;;;;;;;5.65;4.50;;;7.70;99.90;;;;;;4747014;30;20079;-81
2020/12/17 15:47:12;;;;;;;6.03;4.85;;;7.70;99.90;;;;;;5220494;24;20059;-82
2020/12/17 15:59:40;;;;;;;14.98;6.32;;;7.40;99.90;;;;;;4760622;30;20043;-82
2020/12/17 16:08:11;;;;;;;9.68;5.85;;;7.20;99.90;;;;;;4742049;30;20568;-83
2020/12/17 16:12:39;;;;;;;10.70;6.82;;;6.90;99.90;;;;;;4743128;30;20121;-83
2020/12/17 16:21:51;;;;;;;25.83;14.05;;;6.40;99.90;;;;;;4810767;24;20055;-82
2020/12/17 16:24:20;;;;;;;21.73;12.13;;;6.30;99.90;;;;;;4757990;30;20060;-82
2020/12/17 16:26:47;;;;;;;13.07;7.60;;;6.20;99.90;;;;;;4749239;30;20064;-82
2020/12/17 16:32:47;;;;;;;9.60;4.70;;;6.10;99.90;;;;;;4762126;30;20124;-82
2020/12/17 16:35:14;;;;;;;11.40;6.38;;;6.00;99.90;;;;;;4732267;30;20210;-83
2020/12/17 16:37:42;;;;;;;12.10;6.80;;;5.80;99.90;;;;;;4729859;30;20056;-82
2020/12/17 16:40:12;;;;;;;10.68;7.57;;;5.80;99.90;;;;;;4733229;30;20083;-82
2020/12/17 16:42:39;;;;;;;12.20;6.97;;;5.70;99.90;;;;;;4731685;30;20076;-81
2020/12/17 16:54:16;;;;;;;11.77;6.85;;;5.60;99.90;;;;;;4690775;30;20042;-82
2020/12/17 16:58:23;;;;;;;11.27;7.53;;;5.60;99.90;;;;;;4730168;30;20456;-83
2020/12/17 17:02:40;;;;;;;10.70;8.07;;;5.60;99.90;;;;;;4670716;30;20523;-82
2020/12/17 17:06:18;;;;;;;11.35;7.18;;;5.60;99.90;;;;;;4668818;30;20069;-82
2020/12/17 17:17:02;;;;;;;12.18;7.95;;;5.30;99.90;;;;;;4656581;30;20590;-82
2020/12/17 17:19:29;;;;;;;10.32;7.40;;;5.10;99.90;;;;;;4655704;30;20065;-80
2020/12/17 20:10:12;;;;;;;23.85;14.20;;;3.60;99.90;;;;;;5648123;24;20778;-79
2020/12/17 20:12:41;;;;;;;21.50;13.52;;;3.60;99.90;;;;;;4736023;30;20146;-80
2020/12/17 20:15:09;;;;;;;20.75;15.50;;;3.60;99.90;;;;;;4736005;30;20071;-80
2020/12/17 20:17:40;;;;;;;28.45;19.90;;;3.60;99.90;;;;;;4736164;30;20048;-80
2020/12/17 20:20:07;;;;;;;25.10;17.15;;;3.60;99.90;;;;;;4750564;30;20048;-80
2020/12/17 20:22:35;;;;;;;26.33;17.40;;;3.60;99.90;;;;;;4750855;30;20067;-80
2020/12/17 20:25:03;;;;;;;26.88;18.17;;;3.70;99.90;;;;;;4750655;30;20044;-80
2020/12/17 20:27:35;;;;;;;21.80;14.40;;;3.70;99.90;;;;;;4736194;30;20131;-80
2020/12/17 20:30:07;;;;;;;27.15;18.30;;;3.70;99.90;;;;;;4736156;30;20049;-80
2020/12/17 20:32:39;;;;;;;28.63;18.85;;;3.70;99.90;;;;;;4736000;30;20536;-79
2020/12/17 20:35:11;;;;;;;37.30;19.98;;;3.70;99.90;;;;;;4735757;30;20501;-81
2020/12/17 20:37:38;;;;;;;36.17;20.50;;;3.70;99.90;;;;;;4750420;30;20052;-80
2020/12/17 20:40:10;;;;;;;26.08;15.93;;;3.70;99.90;;;;;;4751015;30;20051;-80
2020/12/17 20:42:37;;;;;;;26.13;16.92;;;3.70;99.90;;;;;;4736337;30;20048;-81
2020/12/17 20:45:05;;;;;;;22.15;14.93;;;3.70;99.90;;;;;;4750223;30;20571;-80
2020/12/17 20:47:33;;;;;;;21.30;14.38;;;3.60;99.90;;;;;;4750479;30;20136;-80
2020/12/17 20:50:06;;;;;;;24.48;13.88;;;3.60;99.90;;;;;;4735923;30;20056;-79
2020/12/17 20:52:33;;;;;;;21.30;13.73;;;3.50;99.90;;;;;;4750250;30;20143;-80
2020/12/17 21:04:03;;;;;;;24.50;15.48;;;3.30;99.90;;;;;;5012738;24;20155;-80
2020/12/17 21:06:35;;;;;;;;;;;3.30;99.90;;;;;;4724840;30;20052;-79
2020/12/17 21:09:07;;;;;;;62.05;14.07;;;3.20;99.90;;;;;;4737824;30;19926;-79
2020/12/17 21:11:36;;;;;;;163.77;23.00;;;3.20;99.90;;;;;;4737931;30;20393;-79
2020/12/17 21:14:03;;;;;;;34.58;16.75;;;3.20;99.90;;;;;;4723393;30;20122;-79
2020/12/17 21:16:35;;;;;;;84.30;19.45;;;3.10;99.90;;;;;;4738041;30;20056;-79
2020/12/17 21:19:03;;;;;;;70.03;18.92;;;3.10;99.90;;;;;;4738249;30;20054;-79
2020/12/17 21:21:30;;;;;;;44.90;18.52;;;3.10;99.90;;;;;;4738110;30;20086;-79
2020/12/17 21:23:58;;;;;;;71.03;17.58;;;3.10;99.90;;;;;;4737694;30;20052;-79
2020/12/17 21:26:28;;;;;;;61.90;17.17;;;3.00;99.90;;;;;;4737621;30;20055;-79
2020/12/17 21:28:56;;;;;;;51.53;19.10;;;3.10;99.90;;;;;;4737893;30;20060;-79
2020/12/17 21:31:23;;;;;;;33.00;18.05;;;3.00;99.90;;;;;;4716235;30;20053;-78
2020/12/17 21:33:55;;;;;;;37.83;17.25;;;3.00;99.90;;;;;;4737710;30;20048;-79
2020/12/17 21:36:28;;;;;;;35.50;18.77;;;3.00;99.90;;;;;;4724132;30;20111;-78
2020/12/17 21:39:01;;;;;;;28.60;15.82;;;3.10;99.90;;;;;;4723140;30;20058;-79
2020/12/17 21:41:32;;;;;;;36.63;18.40;;;3.10;99.90;;;;;;4738098;30;20071;-80
2020/12/17 21:44:00;;;;;;;36.05;17.60;;;3.10;99.90;;;;;;4738025;30;20056;-79
2020/12/17 21:46:36;;;;;;;29.23;17.77;;;3.20;99.90;;;;;;4724084;30;20064;-79
2020/12/17 21:49:06;;;;;;;28.08;16.52;;;3.10;99.90;;;;;;4737709;30;20048;-79
2020/12/17 21:51:34;;;;;;;24.20;14.18;;;3.10;99.90;;;;;;4723732;30;20110;-79
2020/12/17 21:54:06;;;;;;;30.33;13.05;;;3.10;99.90;;;;;;4723762;30;20044;-78
2020/12/17 21:56:33;;;;;;;37.80;14.05;;;3.20;99.90;;;;;;4737798;30;20056;-78
2020/12/17 21:59:00;;;;;;;50.53;14.73;;;3.10;99.90;;;;;;4737571;30;20057;-79
2020/12/17 22:01:35;;;;;;;37.25;13.70;;;3.10;99.90;;;;;;4723248;30;20063;-78
2020/12/17 22:04:02;;;;;;;36.42;14.68;;;3.10;99.90;;;;;;4737086;30;20044;-79
2020/12/17 22:06:30;;;;;;;43.90;15.43;;;3.10;99.90;;;;;;4737312;30;20540;-78
2020/12/17 22:08:57;;;;;;;29.20;14.88;;;3.00;99.90;;;;;;4737532;30;20071;-79
2020/12/17 22:11:25;;;;;;;24.08;13.18;;;3.00;99.90;;;;;;4722369;30;20048;-78
2020/12/17 22:13:52;;;;;;;25.10;14.68;;;3.00;99.90;;;;;;4737634;30;20532;-79
2020/12/17 22:16:20;;;;;;;25.17;14.45;;;3.00;99.90;;;;;;4739419;30;20114;-79
2020/12/17 22:18:47;;;;;;;22.35;13.90;;;3.00;99.90;;;;;;4737988;30;20584;-79
2020/12/17 22:21:23;;;;;;;28.40;14.73;;;3.00;99.90;;;;;;4737123;30;20076;-80
2020/12/17 22:23:50;;;;;;;24.70;14.35;;;3.00;99.90;;;;;;4722463;30;20056;-78
2020/12/17 22:26:28;;;;;;;22.67;13.85;;;3.00;99.90;;;;;;4737028;30;20048;-79
2020/12/17 22:28:55;;;;;;;24.17;13.70;;;3.00;99.90;;;;;;4736674;30;20060;-79
2020/12/17 22:31:32;;;;;;;22.02;12.57;;;3.00;99.90;;;;;;4736677;30;20048;-79
2020/12/17 22:34:00;;;;;;;24.05;13.55;;;3.00;99.90;;;;;;4736491;30;20060;-78
2020/12/17 22:36:30;;;;;;;29.58;15.00;;;3.00;99.90;;;;;;4721936;30;20082;-79
2020/12/17 22:38:57;;;;;;;24.05;13.75;;;3.00;99.90;;;;;;4735990;30;20066;-79
2020/12/17 22:41:31;;;;;;;21.05;13.10;;;3.00;99.90;;;;;;4722294;30;20056;-79
2020/12/17 22:44:00;;;;;;;20.63;13.20;;;3.10;99.90;;;;;;4736302;30;20059;-79
2020/12/17 22:46:38;;;;;;;22.17;13.93;;;3.10;99.90;;;;;;4722638;30;20046;-79
2020/12/17 22:49:11;;;;;;;20.33;12.68;;;3.10;99.90;;;;;;4736095;30;20537;-78
2020/12/17 22:51:39;;;;;;;21.65;13.30;;;3.10;99.90;;;;;;4736526;30;20202;-79
2020/12/17 22:54:11;;;;;;;24.10;14.43;;;3.10;99.90;;;;;;4721830;30;20056;-79
2020/12/17 22:56:40;;;;;;;23.52;13.48;;;3.10;99.90;;;;;;4736256;30;20052;-79
2020/12/17 22:59:12;;;;;;;28.13;15.38;;;3.20;99.90;;;;;;4735146;30;20048;-79
2020/12/17 23:01:42;;;;;;;24.15;13.80;;;3.20;99.90;;;;;;4736318;30;20049;-79
2020/12/17 23:04:09;;;;;;;25.10;14.50;;;3.20;99.90;;;;;;4735784;30;20056;-79
2020/12/17 23:06:44;;;;;;;25.83;13.95;;;3.20;99.90;;;;;;4722613;30;20044;-79
2020/12/17 23:09:16;;;;;;;23.50;13.10;;;3.20;99.90;;;;;;4735725;30;20056;-79
2020/12/17 23:11:48;;;;;;;29.98;14.70;;;3.10;99.90;;;;;;4735914;30;20056;-79
2020/12/17 23:14:21;;;;;;;29.55;13.65;;;3.10;99.90;;;;;;4721859;30;20067;-78
2020/12/17 23:16:53;;;;;;;27.80;12.13;;;3.10;99.90;;;;;;4735870;30;20059;-79
2020/12/17 23:19:21;;;;;;;23.38;13.48;;;3.00;99.90;;;;;;4721109;30;20076;-78
2020/12/17 23:21:48;;;;;;;23.65;13.43;;;3.00;99.90;;;;;;4735809;30;20107;-79
2020/12/17 23:24:20;;;;;;;23.63;13.88;;;3.00;99.90;;;;;;4734985;30;20634;-79
2020/12/17 23:26:47;;;;;;;25.75;14.63;;;3.00;99.90;;;;;;4721382;30;20052;-79
2020/12/17 23:29:14;;;;;;;29.05;15.27;;;3.00;99.90;;;;;;4751272;30;20114;-79
2020/12/17 23:31:42;;;;;;;29.27;14.32;;;3.00;99.90;;;;;;4735746;30;20072;-79
2020/12/17 23:34:13;;;;;;;25.85;14.60;;;3.00;99.90;;;;;;4735458;30;20118;-79
2020/12/17 23:36:41;;;;;;;36.92;15.13;;;3.00;99.90;;;;;;4735692;30;20139;-79
2020/12/17 23:39:08;;;;;;;42.00;17.10;;;3.00;99.90;;;;;;4735475;30;20048;-79
2020/12/17 23:41:36;;;;;;;32.65;14.60;;;3.00;99.90;;;;;;4720988;30;20103;-79
2020/12/17 23:44:08;;;;;;;45.30;15.88;;;3.00;99.90;;;;;;4721664;30;20072;-79
2020/12/17 23:46:35;;;;;;;27.42;13.93;;;3.00;99.90;;;;;;4735087;30;20134;-79
2020/12/17 23:49:07;;;;;;;28.42;13.95;;;3.00;99.90;;;;;;4721370;30;20075;-79
2020/12/17 23:51:35;;;;;;;28.90;15.27;;;3.00;99.90;;;;;;4735537;30;20143;-79
2020/12/17 23:54:02;;;;;;;31.02;16.15;;;3.00;99.90;;;;;;4721022;30;20509;-78
2020/12/17 23:56:32;;;;;;;59.45;18.65;;;3.00;99.90;;;;;;4735633;30;20226;-79
2020/12/17 23:58:59;;;;;;;64.53;20.70;;;3.00;99.90;;;;;;4735381;30;20072;-79
